Time;durP1;ratioP1;P1;durP2;ratioP2;P2;SDS_P1;SDS_P2;PMS_P1;PMS_P2;Temp;Humidity;BMP_temperature;BMP_pressure;BME280_temperature;BME280_humidity;BME280_pressure;Samples;Min_cycle;Max_cycle;Signal;HPM_P1;HPM_P2
2022/08/11 00:00:33;;;;;;;2.65;1.40;;;22.10;53.00;;;;;;5012021;28;20432;-78
2022/08/11 00:03:04;;;;;;;2.83;1.55;;;22.10;52.80;;;;;;5011898;28;20474;-79
2022/08/11 00:05:30;;;;;;;1.73;1.33;;;22.00;53.00;;;;;;5012393;28;20030;-79
2022/08/11 00:07:57;;;;;;;1.63;1.33;;;22.00;53.10;;;;;;5012034;28;20061;-78
2022/08/11 00:10:26;;;;;;;2.88;1.50;;;22.00;53.40;;;;;;5012261;28;20022;-78
2022/08/11 00:12:55;;;;;;;2.05;1.55;;;22.00;53.40;;;;;;5011818;28;20031;-78
2022/08/11 00:15:22;;;;;;;1.77;1.55;;;21.90;54.00;;;;;;5011997;28;20029;-79
2022/08/11 00:17:55;;;;;;;2.78;1.65;;;21.90;54.50;;;;;;5011694;28;20026;-80
2022/08/11 00:20:22;;;;;;;2.35;2.03;;;21.80;54.20;;;;;;5012090;28;20045;-80
2022/08/11 00:22:49;;;;;;;2.65;1.90;;;21.70;55.10;;;;;;5011474;28;20037;-80
2022/08/11 00:25:19;;;;;;;2.88;1.75;;;21.70;54.60;;;;;;5015448;28;20059;-79
2022/08/11 00:27:47;;;;;;;3.15;1.83;;;21.70;54.50;;;;;;5012127;28;20022;-79
2022/08/11 00:30:13;;;;;;;1.80;1.52;;;21.70;54.60;;;;;;5016004;28;20033;-79
2022/08/11 00:32:45;;;;;;;3.78;1.70;;;21.70;54.80;;;;;;5015740;28;20491;-78
2022/08/11 00:35:14;;;;;;;4.22;1.70;;;21.60;54.70;;;;;;5015445;28;20420;-79
2022/08/11 00:37:47;;;;;;;2.47;1.73;;;21.60;54.90;;;;;;5015991;28;20087;-80
2022/08/11 00:40:22;;;;;;;4.05;1.52;;;21.60;54.80;;;;;;5015754;28;20359;-79
2022/08/11 00:43:35;;;;;;;2.08;1.63;;;21.60;55.10;;;;;;5015167;28;20034;-80
2022/08/11 00:46:20;;;;;;;1.88;1.50;;;21.60;55.00;;;;;;4994094;28;20049;-80
2022/08/11 00:49:15;;;;;;;2.10;1.35;;;21.60;54.80;;;;;;5015262;28;20037;-80
2022/08/11 00:51:49;;;;;;;2.90;1.80;;;21.60;55.10;;;;;;5015237;28;20068;-79
2022/08/11 00:54:52;;;;;;;1.63;1.30;;;21.60;55.10;;;;;;5015496;28;20021;-80
2022/08/11 00:57:55;;;;;;;1.80;1.60;;;21.60;55.10;;;;;;5015237;28;20041;-79
2022/08/11 01:00:30;;;;;;;3.17;1.63;;;21.60;55.30;;;;;;5015319;28;20510;-80
2022/08/11 01:03:26;;;;;;;2.22;1.77;;;21.50;55.80;;;;;;5014564;28;20032;-79
2022/08/11 01:06:28;;;;;;;3.25;1.52;;;21.40;55.70;;;;;;5014542;28;20505;-79
2022/08/11 01:09:08;;;;;;;2.83;1.80;;;21.40;55.80;;;;;;5014700;28;20096;-80
2022/08/11 01:11:52;;;;;;;1.90;1.50;;;21.40;55.80;;;;;;5015117;28;20026;-79
2022/08/11 01:15:11;;;;;;;2.28;1.88;;;21.40;56.20;;;;;;5015281;28;20038;-80
2022/08/11 01:17:45;;;;;;;1.65;1.40;;;21.30;56.10;;;;;;4916062;29;20115;-80
2022/08/11 01:20:40;;;;;;;2.00;1.58;;;21.30;56.50;;;;;;5011843;28;20053;-79
2022/08/11 01:23:24;;;;;;;3.55;1.80;;;21.20;56.60;;;;;;5014517;28;20032;-79
2022/08/11 01:26:17;;;;;;;3.97;1.70;;;21.20;56.90;;;;;;5014809;28;20034;-79
2022/08/11 01:29:01;;;;;;;2.15;1.75;;;21.20;57.00;;;;;;5014776;28;20060;-79
2022/08/11 01:32:02;;;;;;;2.33;1.60;;;21.20;57.10;;;;;;5014824;28;20026;-79
2022/08/11 01:35:25;;;;;;;2.95;1.55;;;21.10;57.20;;;;;;4996776;28;20153;-80
2022/08/11 01:38:06;;;;;;;2.95;1.80;;;21.10;57.00;;;;;;4915189;29;20033;-80
2022/08/11 01:40:51;;;;;;;4.23;1.77;;;21.10;57.10;;;;;;4915797;29;20025;-80
2022/08/11 01:46:34;;;;;;;2.83;1.70;;;21.00;57.70;;;;;;5014210;28;20489;-78
2022/08/11 01:49:38;;;;;;;2.55;1.65;;;21.00;58.10;;;;;;5012160;28;20065;-81
2022/08/11 01:52:27;;;;;;;2.78;1.65;;;21.10;58.20;;;;;;5011675;28;20030;-80
2022/08/11 01:55:22;;;;;;;3.05;1.67;;;21.10;58.50;;;;;;5013589;28;20109;-80
2022/08/11 01:58:14;;;;;;;2.72;1.90;;;21.10;58.70;;;;;;5016114;28;20051;-78
2022/08/11 02:01:01;;;;;;;2.00;1.67;;;21.10;58.80;;;;;;5014670;28;20379;-79
2022/08/11 02:03:38;;;;;;;2.13;1.58;;;21.10;58.70;;;;;;5013828;28;20479;-79
2022/08/11 02:09:46;;;;;;;4.45;2.00;;;21.00;59.10;;;;;;5013666;28;20402;-78
2022/08/11 02:12:25;;;;;;;4.57;2.20;;;20.90;59.40;;;;;;5013171;28;20030;-79
2022/08/11 02:15:35;;;;;;;2.80;1.80;;;20.80;59.90;;;;;;5013555;28;20038;-79
2022/08/11 02:18:04;;;;;;;3.58;1.60;;;20.80;60.20;;;;;;4959284;28;20042;-79
2022/08/11 02:23:54;;;;;;;3.00;1.80;;;20.70;60.60;;;;;;5013672;28;20493;-79
2022/08/11 02:26:22;;;;;;;;;;;20.70;60.00;;;;;;5013426;28;20087;-79
2022/08/11 02:29:04;;;;;;;2.70;1.80;;;20.70;60.00;;;;;;5013605;28;19906;-79
2022/08/11 02:34:19;;;;;;;2.58;2.00;;;20.50;61.80;;;;;;5012862;28;20509;-80
2022/08/11 02:36:54;;;;;;;4.65;1.70;;;20.50;61.70;;;;;;5013249;28;20479;-81
2022/08/11 02:39:28;;;;;;;3.75;1.95;;;20.40;62.20;;;;;;5013326;28;20026;-80
2022/08/11 02:42:22;;;;;;;4.07;1.67;;;20.30;61.70;;;;;;5013537;28;20022;-79
2022/08/11 02:44:50;;;;;;;3.53;1.90;;;20.30;62.50;;;;;;5013118;28;20036;-80
2022/08/11 02:47:37;;;;;;;2.53;1.85;;;20.20;62.90;;;;;;5011934;28;20705;-80
2022/08/11 02:50:18;;;;;;;3.17;1.90;;;20.20;63.50;;;;;;5012873;28;20050;-79
2022/08/11 02:53:02;;;;;;;3.55;2.00;;;20.10;63.90;;;;;;4995788;28;20041;-79
2022/08/11 02:55:53;;;;;;;2.58;1.70;;;20.00;63.70;;;;;;5013412;28;20041;-79
2022/08/11 02:58:40;;;;;;;2.40;1.77;;;19.90;63.90;;;;;;4999136;28;20070;-79
2022/08/11 03:01:21;;;;;;;2.95;1.80;;;19.90;64.20;;;;;;4993110;28;20033;-80
2022/08/11 03:04:07;;;;;;;2.72;1.83;;;19.90;63.40;;;;;;4993602;28;20065;-79
2022/08/11 03:06:58;;;;;;;2.00;1.80;;;19.90;63.60;;;;;;4993842;28;20030;-79
2022/08/11 03:09:28;;;;;;;1.75;1.58;;;19.90;64.00;;;;;;4993280;28;20045;-79
2022/08/11 03:18:33;;;;;;;4.25;1.80;;;19.80;64.40;;;;;;4992698;28;20057;-80
2022/08/11 03:21:11;;;;;;;2.55;1.42;;;19.80;64.40;;;;;;4993371;28;20109;-81
2022/08/11 03:23:43;;;;;;;2.25;1.45;;;19.80;64.40;;;;;;4993359;28;20237;-80
2022/08/11 03:26:28;;;;;;;3.20;1.65;;;19.80;64.20;;;;;;4992763;28;20363;-78
2022/08/11 03:29:22;;;;;;;2.72;1.77;;;19.80;64.00;;;;;;4993255;28;20161;-79
2022/08/11 03:32:16;;;;;;;3.08;1.63;;;19.80;63.60;;;;;;4993232;28;20114;-79
2022/08/11 03:34:46;;;;;;;3.97;1.60;;;19.80;64.30;;;;;;4993037;28;20106;-80
2022/08/11 03:37:50;;;;;;;2.67;1.90;;;19.90;63.50;;;;;;4992766;28;20035;-79
2022/08/11 03:43:32;;;;;;;4.45;2.08;;;20.00;62.80;;;;;;4992342;28;20037;-79
2022/08/11 03:46:20;;;;;;;2.28;1.75;;;20.00;62.70;;;;;;4975501;28;20038;-78
2022/08/11 03:49:05;;;;;;;2.28;1.83;;;20.10;62.70;;;;;;4993325;28;20502;-78
2022/08/11 03:51:44;;;;;;;3.42;1.80;;;20.10;62.60;;;;;;4995125;28;20050;-80
2022/08/11 03:54:31;;;;;;;2.50;1.50;;;20.10;62.80;;;;;;4992428;28;20026;-78
2022/08/11 03:57:03;;;;;;;3.78;1.60;;;20.00;62.90;;;;;;4992963;28;20035;-78
2022/08/11 03:59:38;;;;;;;5.75;1.63;;;20.00;62.50;;;;;;4996849;28;20031;-79
2022/08/11 04:02:26;;;;;;;1.63;1.40;;;20.10;62.40;;;;;;4996489;28;20080;-79
2022/08/11 04:05:19;;;;;;;2.17;1.63;;;20.00;62.60;;;;;;4978968;28;20057;-80
2022/08/11 04:08:14;;;;;;;3.88;1.92;;;20.00;62.50;;;;;;4996719;28;20092;-79
2022/08/11 04:11:21;;;;;;;3.65;1.35;;;20.00;62.90;;;;;;4996993;28;20031;-80
2022/08/11 04:15:58;;;;;;;1.80;1.42;;;20.00;62.40;;;;;;4996525;28;20050;-80
2022/08/11 04:17:07;;;;;;;2.25;1.80;;;20.00;62.90;;;;;;4996112;28;20092;-80
2022/08/11 04:20:13;;;;;;;3.55;1.73;;;20.10;62.70;;;;;;4979101;28;20577;-80
2022/08/11 04:23:10;;;;;;;3.67;2.00;;;20.00;62.90;;;;;;4996496;28;20062;-80
2022/08/11 04:26:08;;;;;;;3.72;2.00;;;20.00;63.30;;;;;;5014345;28;20029;-80
2022/08/11 04:29:00;;;;;;;4.25;2.17;;;20.00;63.50;;;;;;5015494;28;20062;-80
2022/08/11 04:31:49;;;;;;;2.95;1.80;;;20.00;64.00;;;;;;5002075;28;20064;-79
2022/08/11 04:34:52;;;;;;;3.00;2.20;;;19.90;64.80;;;;;;5002244;28;20026;-78
2022/08/11 04:37:33;;;;;;;3.05;2.00;;;20.00;64.50;;;;;;5007760;28;20124;-79
2022/08/11 04:40:36;;;;;;;4.55;2.42;;;20.00;64.40;;;;;;5006829;28;20034;-78
2022/08/11 04:43:37;;;;;;;2.78;1.80;;;20.10;64.40;;;;;;5004388;28;20032;-78
2022/08/11 04:46:21;;;;;;;2.40;1.67;;;20.20;64.20;;;;;;4975794;28;20045;-79
2022/08/11 05:01:40;;;;;;;2.35;1.70;;;21.00;59.60;;;;;;5015189;28;20029;-75
2022/08/11 05:07:37;;;;;;;4.25;1.40;;;21.20;58.90;;;;;;5010862;28;20033;-76
2022/08/11 05:10:18;;;;;;;4.78;1.50;;;21.30;58.70;;;;;;5014238;28;20022;-78
2022/08/11 05:35:48;;;;;;;2.88;1.40;;;22.20;56.60;;;;;;5014535;28;20045;-76
2022/08/11 05:58:00;;;;;;;1.48;1.27;;;25.00;48.60;;;;;;4994275;28;20498;-78
2022/08/11 06:00:26;;;;;;;2.72;1.67;;;25.70;47.50;;;;;;4993937;28;20023;-79
2022/08/11 06:03:00;;;;;;;2.17;1.50;;;26.50;46.00;;;;;;4994377;28;20034;-79
2022/08/11 06:05:40;;;;;;;1.50;1.20;;;27.50;44.30;;;;;;4993597;28;20042;-77
2022/08/11 06:08:06;;;;;;;;;;;28.40;42.00;;;;;;4994789;28;20479;-77
2022/08/11 06:10:36;;;;;;;2.30;1.33;;;29.10;41.00;;;;;;4993308;28;20024;-77
2022/08/11 06:13:04;;;;;;;2.45;1.45;;;29.50;40.00;;;;;;4998693;28;20026;-78
2022/08/11 06:15:33;;;;;;;1.95;1.20;;;30.00;39.00;;;;;;4995431;28;20034;-78
2022/08/11 06:18:01;;;;;;;2.75;1.50;;;30.50;38.00;;;;;;5013424;28;20452;-78
2022/08/11 06:20:35;;;;;;;3.08;1.20;;;30.40;37.00;;;;;;5012449;28;20141;-79
2022/08/11 06:23:04;;;;;;;1.33;1.00;;;30.40;36.80;;;;;;5011817;28;20080;-79
2022/08/11 06:25:35;;;;;;;1.75;1.20;;;30.90;36.50;;;;;;4994718;28;20034;-78
2022/08/11 06:28:05;;;;;;;2.28;1.35;;;31.20;36.60;;;;;;4976890;28;20061;-79
2022/08/11 06:30:41;;;;;;;1.98;1.40;;;31.10;36.40;;;;;;4975872;28;20526;-77
2022/08/11 06:33:28;;;;;;;5.38;1.52;;;31.20;35.80;;;;;;4976716;28;20113;-76
2022/08/11 06:36:09;;;;;;;1.38;1.05;;;31.10;35.90;;;;;;4994656;28;20379;-77
2022/08/11 06:38:45;;;;;;;1.92;1.48;;;30.80;36.10;;;;;;4993378;28;20087;-79
2022/08/11 06:41:30;;;;;;;1.75;1.48;;;30.90;37.20;;;;;;4976525;28;20023;-77
2022/08/11 06:44:06;;;;;;;2.75;1.48;;;30.90;36.80;;;;;;4993909;28;20161;-77
2022/08/11 06:46:38;;;;;;;1.58;1.30;;;30.90;36.40;;;;;;4993326;28;20038;-77
2022/08/11 06:51:10;;;;;;;3.30;1.58;;;30.60;37.20;;;;;;4976530;28;20113;-78
2022/08/11 06:51:53;;;;;;;1.90;1.40;;;30.50;36.70;;;;;;4993271;28;20046;-77
2022/08/11 06:54:20;;;;;;;2.25;1.50;;;29.90;38.00;;;;;;4993194;28;20037;-78
2022/08/11 07:02:32;;;;;;;1.80;1.38;;;30.80;37.10;;;;;;4993206;28;20045;-78
2022/08/11 07:05:13;;;;;;;5.55;1.33;;;31.40;36.20;;;;;;4993582;28;20095;-76
2022/08/11 07:16:57;;;;;;;1.98;1.20;;;34.10;34.10;;;;;;5013081;28;20398;-78
2022/08/11 07:30:39;;;;;;;2.20;1.70;;;37.90;30.30;;;;;;5011974;28;20442;-78
2022/08/11 07:33:06;;;;;;;1.20;1.10;;;38.80;29.40;;;;;;5012389;28;20113;-78
2022/08/11 07:35:42;;;;;;;1.58;1.30;;;39.30;28.90;;;;;;5011866;28;20038;-76
2022/08/11 07:38:16;;;;;;;1.63;0.90;;;39.40;29.10;;;;;;5012525;28;20021;-77
2022/08/11 07:40:45;;;;;;;1.27;1.10;;;39.80;28.40;;;;;;5012243;28;20030;-77
2022/08/11 07:43:12;;;;;;;4.63;0.95;;;40.00;28.20;;;;;;4995008;28;20064;-77
2022/08/11 07:54:06;;;;;;;8.15;1.30;;;41.00;27.60;;;;;;5012264;28;20096;-78
2022/08/11 07:56:36;;;;;;;1.77;1.52;;;41.50;27.10;;;;;;5011667;28;20065;-79
2022/08/11 08:18:27;;;;;;;3.67;1.30;;;43.50;25.70;;;;;;5011732;28;20130;-78
2022/08/11 08:20:55;;;;;;;1.40;1.02;;;43.30;25.50;;;;;;5012197;28;20030;-78
2022/08/11 08:23:34;;;;;;;1.63;1.20;;;42.70;25.40;;;;;;5011888;28;20093;-79
2022/08/11 08:26:57;;;;;;;1.58;1.00;;;42.90;25.70;;;;;;4999887;28;20385;-78
2022/08/11 08:30:46;;;;;;;1.80;1.13;;;43.30;25.70;;;;;;4994728;28;20062;-78
2022/08/11 08:31:43;;;;;;;1.38;1.00;;;43.30;25.90;;;;;;4993347;28;20132;-77
2022/08/11 08:34:10;;;;;;;2.45;1.15;;;43.30;25.80;;;;;;4993903;28;20030;-78
2022/08/11 08:36:38;;;;;;;2.38;1.30;;;43.50;25.60;;;;;;4992864;28;20467;-77
2022/08/11 08:39:04;;;;;;;1.73;1.15;;;43.50;25.60;;;;;;4992831;28;20022;-77
2022/08/11 08:41:34;;;;;;;4.68;1.25;;;43.20;25.60;;;;;;4991933;28;20467;-77
2022/08/11 08:44:07;;;;;;;1.10;0.90;;;43.10;26.00;;;;;;4993004;28;20093;-78
2022/08/11 08:46:39;;;;;;;1.40;0.95;;;42.70;25.70;;;;;;4995563;28;20038;-77
2022/08/11 08:49:06;;;;;;;1.10;1.00;;;42.40;25.60;;;;;;4995814;28;20506;-77
2022/08/11 08:51:36;;;;;;;1.55;1.17;;;41.70;26.10;;;;;;4995698;28;20030;-77
2022/08/11 08:54:09;;;;;;;1.00;0.90;;;40.80;26.50;;;;;;4995941;28;20129;-78
2022/08/11 08:56:38;;;;;;;4.07;1.13;;;40.00;27.70;;;;;;4995367;28;20041;-78
2022/08/11 08:59:06;;;;;;;1.88;0.90;;;39.60;27.80;;;;;;4995966;28;20027;-77
2022/08/11 09:01:56;;;;;;;1.13;0.95;;;39.30;27.70;;;;;;4995517;28;20034;-77
2022/08/11 09:04:23;;;;;;;2.40;1.25;;;38.80;27.20;;;;;;4996135;28;20347;-79
2022/08/11 09:06:49;;;;;;;2.38;0.95;;;37.60;27.50;;;;;;4995764;28;20037;-78
2022/08/11 09:09:15;;;;;;;1.25;1.10;;;37.40;27.80;;;;;;4978334;28;20033;-78
2022/08/11 09:11:55;;;;;;;1.88;0.82;;;36.50;27.90;;;;;;4995243;28;20034;-78
2022/08/11 09:17:20;;;;;;;2.45;0.93;;;35.20;29.10;;;;;;4995679;28;20415;-76
2022/08/11 09:19:47;;;;;;;2.42;1.00;;;34.50;29.40;;;;;;4994595;28;20105;-79
2022/08/11 09:27:49;;;;;;;1.20;1.10;;;32.70;31.20;;;;;;4995815;28;20065;-78
2022/08/11 09:30:15;;;;;;;2.72;0.93;;;32.40;31.10;;;;;;4995426;28;20113;-77
2022/08/11 09:32:41;;;;;;;1.13;0.73;;;32.40;31.70;;;;;;4994697;28;20101;-77
2022/08/11 09:35:08;;;;;;;0.90;0.73;;;32.30;31.90;;;;;;4995201;28;20072;-78
2022/08/11 09:40:29;;;;;;;1.10;1.00;;;32.40;31.60;;;;;;4995197;28;20077;-76
2022/08/11 09:45:51;;;;;;;1.13;1.00;;;32.10;31.60;;;;;;4997323;28;20129;-77
2022/08/11 09:48:19;;;;;;;2.65;1.08;;;32.00;31.00;;;;;;4995097;28;20026;-77
2022/08/11 09:50:48;;;;;;;1.92;0.82;;;32.00;31.20;;;;;;4977025;28;20030;-78
2022/08/11 09:53:21;;;;;;;0.93;0.80;;;31.90;31.70;;;;;;4994926;28;20018;-78
2022/08/11 09:55:47;;;;;;;1.40;0.90;;;31.60;31.90;;;;;;4994631;28;20467;-79
2022/08/11 09:58:17;;;;;;;0.88;0.88;;;31.50;32.00;;;;;;4995392;28;20027;-77
2022/08/11 10:00:46;;;;;;;1.65;1.10;;;31.50;32.10;;;;;;4995507;28;20030;-77
2022/08/11 10:03:18;;;;;;;2.85;1.23;;;31.50;31.90;;;;;;4994427;28;20498;-78
2022/08/11 10:08:42;;;;;;;2.25;0.80;;;31.00;32.60;;;;;;4994096;28;20065;-76
2022/08/11 10:11:12;;;;;;;0.90;0.80;;;31.10;32.70;;;;;;4977017;28;20057;-78
2022/08/11 10:16:31;;;;;;;1.30;0.95;;;31.10;32.00;;;;;;4994053;28;20041;-79
2022/08/11 10:19:00;;;;;;;0.85;0.85;;;31.10;31.60;;;;;;4994471;28;20109;-76
2022/08/11 10:21:41;;;;;;;1.10;1.00;;;31.10;31.80;;;;;;4993772;28;20109;-77
2022/08/11 10:26:57;;;;;;;1.67;0.73;;;30.80;31.80;;;;;;4993836;28;20042;-78
2022/08/11 10:35:13;;;;;;;1.33;0.80;;;30.80;31.80;;;;;;5013271;28;20041;-77
2022/08/11 10:37:41;;;;;;;1.80;1.10;;;30.90;31.80;;;;;;5012566;28;20040;-77
2022/08/11 10:40:09;;;;;;;1.02;0.80;;;30.90;32.10;;;;;;4995623;28;20030;-78
2022/08/11 10:48:07;;;;;;;1.55;0.88;;;30.90;31.00;;;;;;5013502;28;20444;-77
2022/08/11 10:58:50;;;;;;;1.60;1.00;;;30.60;31.60;;;;;;5012476;28;20083;-78
2022/08/11 11:01:21;;;;;;;1.33;0.90;;;30.40;30.60;;;;;;5012945;28;20429;-76
2022/08/11 11:03:53;;;;;;;1.17;1.00;;;30.30;30.90;;;;;;5012247;28;20060;-77
2022/08/11 11:06:49;;;;;;;1.00;0.90;;;30.20;31.70;;;;;;5012700;28;20108;-77
2022/08/11 11:09:31;;;;;;;1.02;0.90;;;30.00;31.50;;;;;;5012973;28;20088;-77
2022/08/11 11:17:56;;;;;;;1.98;1.02;;;29.90;31.60;;;;;;5017476;28;20044;-77
2022/08/11 11:20:32;;;;;;;1.75;1.00;;;29.90;31.50;;;;;;4996136;28;20049;-77
2022/08/11 11:23:25;;;;;;;0.63;0.57;;;29.70;31.60;;;;;;5012691;28;20061;-76
2022/08/11 11:26:15;;;;;;;2.22;0.95;;;29.70;31.50;;;;;;5012268;28;20467;-78
2022/08/11 11:28:50;;;;;;;0.93;0.80;;;29.80;31.30;;;;;;4967131;28;20045;-77
2022/08/11 11:31:40;;;;;;;2.00;1.23;;;29.70;30.90;;;;;;5012879;28;20033;-77
2022/08/11 11:34:51;;;;;;;1.08;0.98;;;29.70;30.90;;;;;;5012173;28;20037;-77
2022/08/11 11:37:17;;;;;;;3.47;1.00;;;29.70;30.90;;;;;;4963426;28;20092;-77
2022/08/11 11:39:44;;;;;;;1.88;1.00;;;29.70;31.50;;;;;;4992799;28;20030;-76
2022/08/11 11:42:10;;;;;;;1.65;1.23;;;29.90;32.70;;;;;;4993145;28;20486;-77
2022/08/11 11:44:37;;;;;;;1.00;0.80;;;30.00;32.00;;;;;;4992832;28;20101;-78
2022/08/11 11:47:04;;;;;;;0.80;0.80;;;30.00;31.20;;;;;;4993261;28;20081;-76
2022/08/11 11:49:31;;;;;;;3.53;1.00;;;30.10;31.00;;;;;;4992942;28;20459;-77
2022/08/11 11:51:58;;;;;;;2.20;1.35;;;30.30;31.20;;;;;;4992432;28;20022;-77
2022/08/11 11:54:28;;;;;;;1.65;0.93;;;30.30;30.70;;;;;;4993071;28;20026;-77
2022/08/11 11:56:56;;;;;;;1.65;1.10;;;30.30;30.50;;;;;;4992422;28;20072;-77
2022/08/11 12:02:13;;;;;;;1.15;0.85;;;30.50;30.70;;;;;;4992821;28;20407;-77
2022/08/11 12:04:46;;;;;;;1.45;1.10;;;30.30;30.00;;;;;;4975277;28;20026;-78
2022/08/11 12:09:58;;;;;;;1.65;1.10;;;30.00;30.30;;;;;;4992144;28;20096;-76
2022/08/11 12:15:10;;;;;;;1.00;0.90;;;29.90;30.30;;;;;;4992765;28;20485;-77
2022/08/11 12:17:37;;;;;;;2.80;1.13;;;29.80;30.00;;;;;;4992721;28;20018;-77
2022/08/11 12:20:04;;;;;;;1.33;0.90;;;29.70;30.10;;;;;;5000800;28;20042;-77
2022/08/11 12:28:01;;;;;;;0.93;0.82;;;29.40;31.20;;;;;;5000610;28;20101;-76
2022/08/11 12:30:27;;;;;;;1.73;0.93;;;29.30;31.40;;;;;;5016044;28;20026;-77
2022/08/11 12:32:54;;;;;;;1.20;0.90;;;29.30;31.60;;;;;;5015271;28;20029;-77
2022/08/11 12:35:20;;;;;;;1.30;1.00;;;29.20;31.20;;;;;;5015814;28;20037;-77
2022/08/11 12:37:55;;;;;;;0.73;0.63;;;29.20;31.40;;;;;;5015421;28;20026;-77
2022/08/11 12:46:05;;;;;;;0.85;0.85;;;29.10;30.50;;;;;;5015030;28;20172;-77
2022/08/11 12:54:16;;;;;;;1.33;0.82;;;29.00;29.90;;;;;;5015626;28;20492;-78
2022/08/11 13:05:06;;;;;;;1.00;0.80;;;28.90;29.70;;;;;;5014963;28;20033;-77
2022/08/11 13:07:33;;;;;;;0.70;0.70;;;28.90;29.90;;;;;;5015084;28;20029;-78
2022/08/11 13:10:02;;;;;;;0.63;0.63;;;29.00;30.20;;;;;;5014843;28;20041;-77
2022/08/11 13:12:48;;;;;;;6.45;1.13;;;29.00;30.20;;;;;;5015226;28;20054;-77
2022/08/11 13:15:18;;;;;;;0.50;0.50;;;29.00;30.40;;;;;;4997665;28;20121;-76
2022/08/11 13:17:44;;;;;;;0.63;0.63;;;29.00;30.90;;;;;;5014895;28;20030;-78
2022/08/11 13:20:12;;;;;;;0.77;0.60;;;29.10;32.00;;;;;;5014593;28;20053;-77
2022/08/11 13:22:44;;;;;;;1.23;0.88;;;29.20;30.70;;;;;;5014911;28;20033;-75
2022/08/11 13:25:12;;;;;;;3.05;1.00;;;29.20;30.40;;;;;;4997367;28;20382;-76
2022/08/11 13:27:39;;;;;;;1.25;0.80;;;29.20;29.90;;;;;;5014843;28;20022;-78
2022/08/11 13:32:51;;;;;;;2.03;0.88;;;29.30;30.50;;;;;;5014595;28;20080;-77
2022/08/11 13:35:18;;;;;;;1.00;0.82;;;29.20;29.70;;;;;;5014708;28;20038;-76
2022/08/11 13:37:45;;;;;;;1.75;0.90;;;29.10;29.70;;;;;;5014511;28;20022;-77
2022/08/11 13:40:13;;;;;;;1.17;0.80;;;29.10;29.90;;;;;;5014315;28;20026;-76
2022/08/11 13:42:40;;;;;;;1.60;0.85;;;29.00;30.30;;;;;;4997186;28;20026;-77
2022/08/11 13:45:07;;;;;;;2.13;0.60;;;28.90;31.70;;;;;;4994606;28;20034;-77
2022/08/11 13:47:34;;;;;;;1.90;0.85;;;28.90;31.30;;;;;;4978284;28;20022;-76
2022/08/11 13:50:00;;;;;;;1.08;0.60;;;28.90;31.70;;;;;;4994987;28;20037;-75
2022/08/11 13:52:27;;;;;;;0.98;0.95;;;28.80;31.50;;;;;;4996603;28;20031;-77
2022/08/11 13:54:54;;;;;;;1.70;0.98;;;28.70;31.80;;;;;;4994591;28;20109;-75
2022/08/11 13:57:20;;;;;;;1.27;0.88;;;28.60;31.60;;;;;;4994779;28;20022;-75
2022/08/11 13:59:53;;;;;;;1.35;0.93;;;28.60;31.50;;;;;;4993871;28;20022;-75
2022/08/11 14:02:23;;;;;;;1.17;0.73;;;28.50;31.80;;;;;;4994689;28;20041;-77
2022/08/11 14:04:55;;;;;;;0.80;0.70;;;28.40;32.30;;;;;;4993913;28;20047;-76
2022/08/11 14:07:25;;;;;;;1.00;0.80;;;28.30;32.00;;;;;;4994520;28;20026;-75
2022/08/11 14:09:58;;;;;;;3.08;0.98;;;28.30;31.90;;;;;;4994354;28;20072;-77
2022/08/11 14:15:19;;;;;;;1.33;0.88;;;28.40;32.40;;;;;;4994506;28;20065;-75
2022/08/11 14:17:54;;;;;;;1.23;0.98;;;28.40;32.90;;;;;;4994237;28;20113;-77
2022/08/11 14:20:21;;;;;;;1.75;0.90;;;28.40;33.00;;;;;;4996812;28;20074;-76
2022/08/11 14:22:48;;;;;;;3.08;1.00;;;28.40;33.00;;;;;;4993927;28;20137;-78
2022/08/11 14:25:15;;;;;;;2.17;1.08;;;28.50;33.30;;;;;;4976651;28;20459;-76
2022/08/11 14:27:43;;;;;;;1.30;0.80;;;28.50;33.10;;;;;;4994128;28;20034;-76
2022/08/11 14:30:53;;;;;;;0.70;0.70;;;28.50;33.30;;;;;;4993572;28;20026;-76
2022/08/11 14:32:56;;;;;;;1.00;0.85;;;28.50;33.10;;;;;;4993213;28;20077;-77
2022/08/11 14:35:26;;;;;;;2.42;1.17;;;28.40;33.30;;;;;;4993962;28;20388;-77
2022/08/11 14:37:52;;;;;;;1.13;0.68;;;28.50;33.50;;;;;;4993646;28;20066;-78
2022/08/11 14:48:36;;;;;;;0.85;0.80;;;28.30;34.10;;;;;;4993575;28;20490;-77
2022/08/11 14:51:03;;;;;;;1.05;0.95;;;28.20;33.90;;;;;;4993146;28;20034;-77
2022/08/11 14:53:30;;;;;;;1.17;0.88;;;28.20;33.80;;;;;;4993499;28;20101;-77
2022/08/11 14:58:41;;;;;;;1.50;1.00;;;28.10;34.00;;;;;;4993205;28;20041;-76
2022/08/11 15:03:05;;;;;;;1.45;0.98;;;28.10;33.80;;;;;;4993154;28;20041;-76
2022/08/11 15:03:54;;;;;;;1.38;0.88;;;28.00;33.90;;;;;;4992627;28;20034;-76
2022/08/11 15:06:20;;;;;;;1.83;1.10;;;28.00;34.00;;;;;;4993579;28;20037;-76
2022/08/11 15:08:55;;;;;;;1.67;0.98;;;28.00;34.20;;;;;;4993326;28;20023;-77
2022/08/11 15:14:10;;;;;;;2.00;0.85;;;27.90;34.90;;;;;;4993056;28;20045;-75
2022/08/11 15:19:24;;;;;;;1.63;0.98;;;27.90;35.20;;;;;;4993272;28;20057;-77
2022/08/11 15:24:36;;;;;;;2.15;1.13;;;27.80;35.70;;;;;;4993072;28;20034;-77
2022/08/11 15:38:11;;;;;;;3.33;1.15;;;27.60;36.40;;;;;;4992819;28;20073;-76
2022/08/11 15:46:37;;;;;;;2.40;1.23;;;27.50;36.40;;;;;;4995444;28;20501;-77
2022/08/11 15:49:15;;;;;;;2.00;1.20;;;27.50;36.60;;;;;;4992277;28;20081;-77
2022/08/11 15:51:56;;;;;;;2.33;1.20;;;27.40;36.40;;;;;;4992927;28;20022;-78
2022/08/11 15:54:24;;;;;;;;;;;27.40;36.40;;;;;;4995639;28;20366;-76
2022/08/11 15:56:53;;;;;;;1.85;1.20;;;27.40;36.50;;;;;;4996928;28;20012;-78
2022/08/11 16:04:54;;;;;;;0.77;0.77;;;27.40;36.50;;;;;;4996762;28;20493;-76
2022/08/11 16:07:26;;;;;;;1.67;1.05;;;27.30;36.30;;;;;;4996729;28;20594;-77
2022/08/11 16:10:20;;;;;;;1.98;1.08;;;27.30;36.20;;;;;;4996635;28;20034;-77
2022/08/11 16:18:39;;;;;;;1.65;1.40;;;27.20;35.40;;;;;;4981977;28;20041;-77
2022/08/11 16:21:15;;;;;;;1.77;0.98;;;27.20;35.60;;;;;;4978859;28;20077;-78
2022/08/11 16:23:46;;;;;;;2.58;1.00;;;27.20;35.70;;;;;;5015419;28;20044;-78
2022/08/11 16:26:13;;;;;;;;;;;27.10;35.50;;;;;;5015753;28;20025;-76
2022/08/11 16:28:43;;;;;;;1.65;1.15;;;27.10;35.60;;;;;;5015862;28;19914;-76
2022/08/11 16:31:10;;;;;;;1.57;1.20;;;27.10;35.60;;;;;;5015391;28;20072;-76
2022/08/11 16:33:41;;;;;;;3.67;1.13;;;27.00;35.90;;;;;;5015349;28;20287;-77
2022/08/11 16:38:58;;;;;;;3.58;1.30;;;27.00;35.60;;;;;;5015765;28;20048;-76
2022/08/11 16:47:03;;;;;;;2.10;1.20;;;26.80;35.60;;;;;;5015011;28;20040;-75
2022/08/11 16:49:52;;;;;;;3.00;1.00;;;26.80;35.90;;;;;;5015516;28;20037;-77
2022/08/11 16:52:19;;;;;;;1.13;1.00;;;26.70;36.10;;;;;;5014872;28;20034;-77
2022/08/11 16:54:46;;;;;;;2.55;1.55;;;26.70;36.40;;;;;;5015444;28;20022;-78
2022/08/11 17:00:14;;;;;;;3.28;1.10;;;26.70;36.70;;;;;;4964557;28;20042;-76
2022/08/11 17:14:27;;;;;;;1.75;0.95;;;26.50;36.30;;;;;;5015587;28;20041;-76
2022/08/11 17:16:54;;;;;;;1.30;0.98;;;26.40;35.90;;;;;;5015126;28;20092;-76
2022/08/11 17:19:27;;;;;;;1.52;1.20;;;26.40;35.90;;;;;;5014185;28;20049;-77
2022/08/11 17:24:42;;;;;;;5.40;1.50;;;26.40;35.70;;;;;;5015037;28;20044;-77
2022/08/11 17:27:09;;;;;;;2.33;1.48;;;26.30;35.40;;;;;;5014520;28;20109;-76
2022/08/11 17:29:43;;;;;;;3.97;1.10;;;26.30;35.50;;;;;;5014820;28;20056;-76
2022/08/11 17:38:20;;;;;;;5.00;0.73;;;26.20;35.60;;;;;;4915310;29;20426;-76
2022/08/11 17:49:11;;;;;;;1.58;0.85;;;26.10;35.70;;;;;;5013993;28;20045;-77
2022/08/11 17:59:57;;;;;;;5.93;1.10;;;25.90;35.80;;;;;;5014181;28;20122;-78
2022/08/11 18:05:48;;;;;;;1.15;0.82;;;25.80;35.70;;;;;;5004968;28;20041;-77
